« Back
NWS Peachtree City, Ga » Text Product » ATL Terminal Aerodrome Forecast


Printer-friendly Version
Current Version              Previous Versions:   1  2  3  4  5  6  7  8  9  

Terminal Aerodrome Forecast

867
FTUS42 KFFC 011558 AAC
TAFATL
TAF AMD
KATL 011558Z 0116/0218 08010KT 6SM BR OVC006
     FM012100 08005KT 6SM BR BKN012
     FM020300 17003KT 2SM -DZ OVC008
     FM020600 22002KT 1SM -DZ OVC004
     FM021500 30005KT 4SM -DZ OVC008=



USA.gov is the U.S. government's official web portal to all federal, state and local government web resources and services.